createdAt,value
2023-02-06T00:00:42.636Z,101380.13
2023-02-06T00:03:09.639Z,101386.39
2023-02-06T00:05:36.766Z,101379.12
2023-02-06T00:08:03.888Z,101380.52
2023-02-06T00:10:34.547Z,101380.17
2023-02-06T00:13:04.923Z,101381.98
2023-02-06T00:15:32.428Z,101379.86
2023-02-06T00:17:59.413Z,101377.36
2023-02-06T00:20:26.136Z,101379.34
2023-02-06T00:22:53.345Z,101386.66
2023-02-06T00:25:20.024Z,101386.29
2023-02-06T00:27:46.695Z,101385.20
2023-02-06T00:30:13.765Z,101387.20
2023-02-06T00:32:41.701Z,101383.77
2023-02-06T00:35:09.499Z,101381.89
2023-02-06T00:37:36.434Z,101384.88
2023-02-06T00:40:05.765Z,101388.21
2023-02-06T00:42:32.501Z,101389.33
2023-02-06T00:44:59.964Z,101391.68
2023-02-06T00:47:27.048Z,101398.83
2023-02-06T00:49:54.821Z,101394.37
2023-02-06T00:52:21.365Z,101399.31
2023-02-06T00:54:48.433Z,101393.23
2023-02-06T00:57:15.406Z,101392.45
2023-02-06T00:59:42.353Z,101388.12
2023-02-06T01:02:09.488Z,101387.95
2023-02-06T01:04:36.167Z,101388.59
2023-02-06T01:07:04.107Z,101393.04
2023-02-06T01:09:31.068Z,101395.04
2023-02-06T01:11:57.821Z,101402.60
2023-02-06T01:14:26.025Z,101398.88
2023-02-06T01:16:52.709Z,101401.85
2023-02-06T01:19:19.871Z,101400.03
2023-02-06T01:21:47.000Z,101399.59
2023-02-06T01:24:13.642Z,101405.98
2023-02-06T01:26:40.591Z,101408.27
2023-02-06T01:29:07.454Z,101405.55
2023-02-06T01:31:34.299Z,101409.48
2023-02-06T01:34:02.849Z,101408.89
2023-02-06T01:36:30.180Z,101411.37
2023-02-06T01:38:57.066Z,101415.04
2023-02-06T01:41:23.747Z,101416.17
2023-02-06T01:44:16.352Z,101415.41
2023-02-06T01:46:45.897Z,101413.92
2023-02-06T01:49:25.292Z,101413.79
2023-02-06T01:52:30.619Z,101416.74
2023-02-06T01:54:59.230Z,101418.48
2023-02-06T01:57:26.046Z,101417.20
2023-02-06T01:59:57.929Z,101416.84
2023-02-06T02:02:25.157Z,101418.84
2023-02-06T02:04:53.770Z,101422.95
2023-02-06T02:07:25.538Z,101425.41
2023-02-06T02:09:52.446Z,101429.52
2023-02-06T02:12:19.148Z,101424.46
2023-02-06T02:14:46.549Z,101428.89
2023-02-06T02:17:37.840Z,101429.09
2023-02-06T02:20:42.221Z,101428.95
2023-02-06T02:23:24.438Z,101431.73
2023-02-06T02:26:24.034Z,101435.18
2023-02-06T02:29:02.545Z,101434.09
2023-02-06T02:31:53.458Z,101433.25
2023-02-06T02:34:41.375Z,101434.33
2023-02-06T02:37:16.012Z,101437.20
2023-02-06T02:39:52.557Z,101438.42
2023-02-06T02:42:23.574Z,101441.63
2023-02-06T02:45:04.492Z,101442.24
2023-02-06T02:47:33.464Z,101442.83
2023-02-06T02:50:00.610Z,101445.15
2023-02-06T02:52:27.889Z,101439.08
2023-02-06T02:54:54.549Z,101432.48
2023-02-06T02:57:26.692Z,101434.10
2023-02-06T02:59:53.771Z,101439.44
2023-02-06T03:02:30.152Z,101445.01
2023-02-06T03:05:00.302Z,101446.83
2023-02-06T03:07:53.153Z,101447.48
2023-02-06T03:10:49.285Z,101442.14
2023-02-06T03:13:26.673Z,101440.17
2023-02-06T03:16:46.383Z,101442.13
2023-02-06T03:19:13.822Z,101438.75
2023-02-06T03:21:41.965Z,101438.02
2023-02-06T03:24:15.479Z,101436.17
2023-02-06T03:26:42.755Z,101432.67
2023-02-06T03:29:11.533Z,101437.63
2023-02-06T03:31:51.756Z,101440.19
2023-02-06T03:34:25.021Z,101442.29
2023-02-06T03:36:51.789Z,101443.40
2023-02-06T03:39:18.854Z,101443.59
2023-02-06T03:41:46.648Z,101446.48
2023-02-06T03:44:16.480Z,101446.39
2023-02-06T03:46:44.708Z,101442.27
2023-02-06T03:49:13.033Z,101441.58
2023-02-06T03:51:51.507Z,101436.64
2023-02-06T03:54:19.402Z,101444.10
2023-02-06T03:56:53.813Z,101441.79
2023-02-06T03:59:20.394Z,101441.47
2023-02-06T04:01:49.721Z,101442.55
2023-02-06T04:04:17.598Z,101444.60
2023-02-06T04:06:44.576Z,101451.14
2023-02-06T04:09:11.546Z,101449.83
2023-02-06T04:11:38.434Z,101450.75
2023-02-06T04:14:05.871Z,101449.81
2023-02-06T04:16:34.385Z,101456.61
2023-02-06T04:19:01.410Z,101456.78
2023-02-06T04:21:28.667Z,101462.33
2023-02-06T04:23:55.374Z,101466.43
2023-02-06T04:26:23.231Z,101469.85
2023-02-06T04:28:50.757Z,101470.61
2023-02-06T04:31:17.658Z,101476.91
2023-02-06T04:33:44.893Z,101478.81
2023-02-06T04:36:11.672Z,101483.39
2023-02-06T04:38:38.280Z,101479.98
2023-02-06T04:41:05.582Z,101485.66
2023-02-06T04:43:32.484Z,101491.48
2023-02-06T04:46:00.475Z,101490.14
2023-02-06T04:48:27.316Z,101491.22
2023-02-06T04:50:55.336Z,101484.64
2023-02-06T04:53:22.339Z,101488.47
2023-02-06T04:55:50.820Z,101488.14
2023-02-06T04:58:18.271Z,101486.53
2023-02-06T05:00:45.854Z,101486.40
2023-02-06T05:03:13.291Z,101488.98
2023-02-06T05:05:40.433Z,101490.05
2023-02-06T05:08:07.159Z,101486.91
2023-02-06T05:10:33.860Z,101493.80
2023-02-06T05:13:00.983Z,101493.23
2023-02-06T05:15:27.727Z,101494.34
2023-02-06T05:17:55.979Z,101495.99
2023-02-06T05:20:22.724Z,101496.54
2023-02-06T05:22:49.669Z,101501.79
2023-02-06T05:25:16.794Z,101503.53
2023-02-06T05:27:43.712Z,101507.48
2023-02-06T05:30:11.251Z,101504.89
2023-02-06T05:32:38.321Z,101506.33
2023-02-06T05:35:05.690Z,101510.64
2023-02-06T05:37:32.760Z,101510.42
2023-02-06T05:40:00.110Z,101516.48
2023-02-06T05:42:26.959Z,101514.04
2023-02-06T05:44:53.776Z,101515.11
2023-02-06T05:47:20.608Z,101518.13
2023-02-06T05:49:47.706Z,101516.27
2023-02-06T05:52:14.985Z,101518.42
2023-02-06T05:54:41.773Z,101515.42
2023-02-06T05:57:08.528Z,101517.71
2023-02-06T05:59:35.472Z,101517.20
2023-02-06T06:02:02.320Z,101519.85
2023-02-06T06:04:29.334Z,101523.23
2023-02-06T06:06:56.383Z,101520.41
2023-02-06T06:09:23.225Z,101522.99
2023-02-06T06:11:51.019Z,101526.02
2023-02-06T06:14:17.765Z,101531.77
2023-02-06T06:16:46.653Z,101528.94
2023-02-06T06:19:13.799Z,101532.71
2023-02-06T06:21:40.381Z,101540.58
2023-02-06T06:24:07.239Z,101534.83
2023-02-06T06:26:34.334Z,101542.41
2023-02-06T06:29:01.168Z,101539.77
2023-02-06T06:31:27.825Z,101541.01
2023-02-06T06:33:55.192Z,101542.02
2023-02-06T06:36:22.112Z,101550.09
2023-02-06T06:38:49.151Z,101550.02
2023-02-06T06:41:15.883Z,101553.50
2023-02-06T06:43:42.630Z,101549.87
2023-02-06T06:46:09.318Z,101554.20
2023-02-06T06:48:37.662Z,101549.72
2023-02-06T06:51:05.309Z,101553.07
2023-02-06T06:53:32.083Z,101549.89
2023-02-06T06:56:05.753Z,101554.34
2023-02-06T06:58:32.601Z,101555.12
2023-02-06T07:00:59.354Z,101554.55
2023-02-06T07:03:26.152Z,101556.50
2023-02-06T07:05:53.332Z,101553.40
2023-02-06T07:08:21.254Z,101553.28
2023-02-06T07:10:48.211Z,101547.84
2023-02-06T07:13:16.573Z,101554.30
2023-02-06T07:15:43.524Z,101551.38
2023-02-06T07:18:11.738Z,101550.20
2023-02-06T07:20:38.789Z,101550.54
2023-02-06T07:23:05.577Z,101550.61
2023-02-06T07:25:32.234Z,101552.77
2023-02-06T07:28:00.030Z,101557.11
2023-02-06T07:30:27.352Z,101557.48
2023-02-06T07:32:54.014Z,101554.77
2023-02-06T07:35:20.717Z,101546.63
2023-02-06T07:37:47.477Z,101553.41
2023-02-06T07:40:14.450Z,101552.21
2023-02-06T07:42:41.529Z,101556.75
2023-02-06T07:45:15.058Z,101563.41
2023-02-06T07:47:41.750Z,101563.70
2023-02-06T07:50:10.446Z,101562.15
2023-02-06T07:52:38.613Z,101560.58
2023-02-06T07:55:05.904Z,101565.02
2023-02-06T07:57:32.688Z,101558.17
2023-02-06T07:59:59.248Z,101564.70
2023-02-06T08:02:26.266Z,101564.84
2023-02-06T08:04:52.905Z,101565.73
2023-02-06T08:07:19.649Z,101558.84
2023-02-06T08:09:46.389Z,101562.43
2023-02-06T08:12:13.076Z,101558.66
2023-02-06T08:14:39.973Z,101559.84
2023-02-06T08:21:59.115Z,101556.04
2023-02-06T08:24:50.801Z,101551.96
2023-02-06T08:27:17.635Z,101555.16
2023-02-06T08:29:44.520Z,101557.91
2023-02-06T08:32:11.529Z,101557.69
2023-02-06T08:34:38.989Z,101551.98
2023-02-06T08:37:05.926Z,101549.98
2023-02-06T08:39:32.871Z,101554.42
2023-02-06T08:41:59.761Z,101558.03
2023-02-06T08:44:26.466Z,101558.80
2023-02-06T08:47:04.681Z,101561.53
2023-02-06T08:49:35.909Z,101554.33
2023-02-06T08:52:02.473Z,101559.02
2023-02-06T08:54:29.619Z,101566.34
2023-02-06T08:56:57.870Z,101564.30
2023-02-06T08:59:24.612Z,101561.65
2023-02-06T09:01:51.556Z,101559.93
2023-02-06T09:04:18.956Z,101557.92
2023-02-06T09:06:49.562Z,101566.46
2023-02-06T09:09:16.490Z,101568.63
2023-02-06T09:11:43.333Z,101561.73
2023-02-06T09:14:13.744Z,101559.20
2023-02-06T09:16:40.335Z,101559.89
2023-02-06T09:19:07.105Z,101557.88
2023-02-06T09:21:34.695Z,101557.37
2023-02-06T09:24:04.334Z,101562.59
2023-02-06T09:35:29.015Z,101559.00
2023-02-06T09:37:56.296Z,101554.73
2023-02-06T09:40:26.350Z,101549.98
2023-02-06T09:42:55.914Z,101550.73
2023-02-06T09:45:25.225Z,101550.09
2023-02-06T09:47:55.339Z,101551.13
2023-02-06T09:50:51.210Z,101549.96
2023-02-06T09:53:25.644Z,101552.77
2023-02-06T09:56:01.153Z,101547.77
2023-02-06T09:58:53.038Z,101546.13
2023-02-06T10:01:21.693Z,101543.09
2023-02-06T10:03:55.785Z,101545.12
2023-02-06T10:06:26.412Z,101542.59
2023-02-06T10:08:56.210Z,101540.55
2023-02-06T10:11:34.818Z,101540.66
2023-02-06T10:14:04.147Z,101536.63
2023-02-06T10:16:45.401Z,101536.32
2023-02-06T10:19:20.544Z,101530.52
2023-02-06T10:21:54.754Z,101531.29
2023-02-06T10:24:36.712Z,101528.07
2023-02-06T10:27:05.622Z,101531.66
2023-02-06T10:29:32.660Z,101532.43
2023-02-06T10:32:21.351Z,101526.95
2023-02-06T10:34:58.448Z,101525.86
2023-02-06T10:37:31.161Z,101524.02
2023-02-06T10:40:26.842Z,101521.72
2023-02-06T10:43:36.502Z,101525.06
2023-02-06T10:46:12.431Z,101526.44
2023-02-06T10:48:43.784Z,101523.51
2023-02-06T10:51:16.800Z,101525.84
2023-02-06T10:53:49.737Z,101524.52
2023-02-06T10:56:23.970Z,101523.52
2023-02-06T10:58:59.608Z,101524.37
2023-02-06T11:01:29.094Z,101524.41
2023-02-06T11:04:27.053Z,101522.66
2023-02-06T11:06:57.402Z,101523.29
2023-02-06T11:09:24.572Z,101520.98
2023-02-06T11:11:53.953Z,101524.30
2023-02-06T11:14:29.814Z,101527.61
2023-02-06T11:16:58.427Z,101521.13
2023-02-06T11:19:30.883Z,101525.23
2023-02-06T11:22:03.973Z,101528.06
2023-02-06T11:24:30.730Z,101531.09
2023-02-06T11:26:59.640Z,101529.46
2023-02-06T11:29:28.110Z,101529.21
2023-02-06T11:32:04.797Z,101524.11
2023-02-06T11:34:31.723Z,101527.59
2023-02-06T11:37:34.518Z,101527.97
2023-02-06T11:40:16.690Z,101525.07
2023-02-06T11:42:47.157Z,101527.01
2023-02-06T11:45:24.346Z,101529.09
2023-02-06T11:47:51.118Z,101521.16
2023-02-06T11:50:25.204Z,101526.91
2023-02-06T11:53:07.452Z,101525.58
2023-02-06T11:55:34.667Z,101522.91
2023-02-06T11:58:04.886Z,101526.24
2023-02-06T12:00:32.080Z,101528.52
2023-02-06T12:02:58.792Z,101524.92
2023-02-06T12:05:27.446Z,101517.32
2023-02-06T12:08:14.589Z,101522.45
2023-02-06T12:10:48.020Z,101524.42
2023-02-06T12:13:21.113Z,101531.33
2023-02-06T12:15:50.768Z,101526.48
2023-02-06T12:18:48.281Z,101530.98
2023-02-06T12:21:19.458Z,101527.88
2023-02-06T12:23:54.867Z,101533.01
2023-02-06T12:26:23.551Z,101530.94
2023-02-06T12:28:54.426Z,101528.41
2023-02-06T12:31:25.198Z,101521.73
2023-02-06T12:34:00.121Z,101528.41
2023-02-06T12:36:33.479Z,101530.52
2023-02-06T12:39:19.545Z,101527.67
2023-02-06T12:41:58.877Z,101536.87
2023-02-06T12:44:39.275Z,101533.86
2023-02-06T12:47:12.439Z,101535.67
2023-02-06T12:49:48.907Z,101548.09
2023-02-06T12:52:24.849Z,101544.77
2023-02-06T12:55:01.574Z,101543.03
2023-02-06T12:57:28.669Z,101545.54
2023-02-06T13:00:04.748Z,101545.24
2023-02-06T13:03:09.310Z,101546.57
2023-02-06T13:05:38.320Z,101542.82
2023-02-06T13:08:50.201Z,101539.45
2023-02-06T13:11:22.843Z,101543.45
2023-02-06T13:13:49.592Z,101543.16
2023-02-06T13:16:16.317Z,101543.68
2023-02-06T13:18:49.932Z,101543.12
2023-02-06T13:21:20.981Z,101548.00
2023-02-06T13:24:04.905Z,101548.29
2023-02-06T13:26:48.330Z,101554.14
2023-02-06T13:29:25.107Z,101549.27
2023-02-06T13:32:10.796Z,101556.27
2023-02-06T13:34:46.169Z,101557.33
2023-02-06T13:37:25.264Z,101557.94
2023-02-06T13:40:20.399Z,101557.96
2023-02-06T13:43:02.609Z,101560.35
2023-02-06T13:45:35.396Z,101569.02
2023-02-06T13:48:12.929Z,101567.22
2023-02-06T13:51:13.231Z,101568.50
2023-02-06T13:54:18.518Z,101569.24
2023-02-06T13:56:57.650Z,101567.55
2023-02-06T13:59:26.229Z,101564.86
2023-02-06T14:01:53.410Z,101571.66
2023-02-06T14:04:27.703Z,101575.21
2023-02-06T14:07:16.562Z,101576.31
2023-02-06T14:10:33.118Z,101582.83
2023-02-06T14:13:16.494Z,101588.41
2023-02-06T14:15:46.025Z,101590.46
2023-02-06T14:18:32.058Z,101591.93
2023-02-06T14:21:08.632Z,101596.77
2023-02-06T14:24:01.598Z,101596.52
2023-02-06T14:26:35.378Z,101598.54
2023-02-06T14:29:45.417Z,101593.77
2023-02-06T14:32:43.659Z,101599.14
2023-02-06T14:40:07.760Z,101610.70
2023-02-06T14:42:36.764Z,101609.66
2023-02-06T14:45:08.652Z,101611.16
2023-02-06T14:47:41.823Z,101617.87
2023-02-06T14:50:24.695Z,101617.84
2023-02-06T14:52:57.105Z,101620.01
2023-02-06T14:55:36.452Z,101614.88
2023-02-06T14:58:17.414Z,101617.98
2023-02-06T15:00:44.071Z,101624.94
2023-02-06T15:03:15.995Z,101618.16
2023-02-06T15:05:43.075Z,101616.55
2023-02-06T15:08:19.466Z,101618.35
2023-02-06T15:10:46.508Z,101621.40
2023-02-06T15:13:23.556Z,101621.30
2023-02-06T15:15:54.632Z,101625.70
2023-02-06T15:18:21.466Z,101629.71
2023-02-06T15:20:55.818Z,101632.00
2023-02-06T15:23:41.586Z,101626.68
2023-02-06T15:26:08.387Z,101629.64
2023-02-06T15:28:35.553Z,101626.52
2023-02-06T15:31:02.876Z,101634.27
2023-02-06T15:33:31.688Z,101636.73
2023-02-06T15:35:59.711Z,101635.46
2023-02-06T15:38:28.033Z,101640.59
2023-02-06T15:45:01.826Z,101646.20
2023-02-06T15:47:28.943Z,101646.76
2023-02-06T15:49:59.670Z,101647.27
2023-02-06T15:52:38.780Z,101649.29
2023-02-06T15:55:05.642Z,101647.59
2023-02-06T15:57:37.708Z,101651.46
2023-02-06T16:00:08.924Z,101654.89
2023-02-06T16:02:39.218Z,101657.64
2023-02-06T16:05:06.348Z,101663.66
2023-02-06T16:07:35.393Z,101665.65
2023-02-06T16:10:22.618Z,101667.41
2023-02-06T16:12:49.766Z,101670.35
2023-02-06T16:15:34.422Z,101670.46
2023-02-06T16:18:18.926Z,101675.23
2023-02-06T16:20:46.031Z,101673.68
2023-02-06T16:23:23.522Z,101674.16
2023-02-06T16:26:07.056Z,101676.80
2023-02-06T16:28:59.059Z,101674.74
2023-02-06T16:31:26.910Z,101675.50
2023-02-06T16:33:53.870Z,101677.23
2023-02-06T16:36:21.875Z,101680.18
2023-02-06T16:39:03.243Z,101684.42
2023-02-06T16:41:36.444Z,101686.67
2023-02-06T16:53:49.316Z,101689.61
2023-02-06T16:56:16.584Z,101692.27
2023-02-06T16:58:44.698Z,101689.93
2023-02-06T17:01:21.271Z,101692.52
2023-02-06T17:03:48.791Z,101691.83
2023-02-06T17:06:21.598Z,101693.04
2023-02-06T17:08:53.034Z,101691.40
2023-02-06T17:11:19.964Z,101692.51
2023-02-06T17:13:46.693Z,101695.77
2023-02-06T17:16:17.254Z,101698.23
2023-02-06T17:18:44.878Z,101695.65
2023-02-06T17:21:13.382Z,101696.98
2023-02-06T17:23:40.535Z,101693.96
2023-02-06T17:26:17.898Z,101701.40
2023-02-06T17:28:44.850Z,101697.43
2023-02-06T17:31:11.734Z,101690.57
2023-02-06T17:33:38.837Z,101692.33
2023-02-06T17:36:07.958Z,101692.69
2023-02-06T17:38:34.676Z,101692.23
2023-02-06T17:41:02.981Z,101689.09
2023-02-06T17:43:29.806Z,101695.59
2023-02-06T17:45:56.977Z,101695.64
2023-02-06T17:48:23.718Z,101695.14
2023-02-06T17:50:50.449Z,101694.97
2023-02-06T17:53:17.782Z,101692.99
2023-02-06T17:55:45.099Z,101691.48
2023-02-06T17:58:12.496Z,101690.64
2023-02-06T18:00:39.643Z,101694.77
2023-02-06T18:03:06.559Z,101691.36
2023-02-06T18:05:35.068Z,101685.45
2023-02-06T18:08:02.416Z,101687.09
2023-02-06T18:10:29.269Z,101684.77
2023-02-06T18:12:56.410Z,101686.38
2023-02-06T18:15:26.421Z,101683.84
2023-02-06T18:17:54.426Z,101680.09
2023-02-06T18:20:21.551Z,101681.86
2023-02-06T18:22:48.584Z,101680.85
2023-02-06T18:25:15.566Z,101679.30
2023-02-06T18:27:44.941Z,101676.48
2023-02-06T18:30:13.422Z,101684.56
2023-02-06T18:32:42.108Z,101682.77
2023-02-06T18:35:09.203Z,101687.17
2023-02-06T18:37:36.050Z,101691.13
2023-02-06T18:40:03.690Z,101693.54
2023-02-06T18:42:49.514Z,101694.55
2023-02-06T18:45:20.379Z,101692.23
2023-02-06T18:47:47.328Z,101692.20
2023-02-06T18:50:14.371Z,101691.05
2023-02-06T18:52:41.245Z,101682.67
2023-02-06T18:55:08.836Z,101681.13
2023-02-06T19:05:45.808Z,101669.16
2023-02-06T19:08:12.498Z,101670.92
2023-02-06T19:10:40.122Z,101670.63
2023-02-06T19:13:07.368Z,101669.57
2023-02-06T19:15:35.357Z,101668.70
2023-02-06T19:18:04.059Z,101669.11
2023-02-06T19:20:30.862Z,101675.75
2023-02-06T19:22:57.979Z,101676.55
2023-02-06T19:25:25.268Z,101676.02
2023-02-06T19:27:52.019Z,101677.84
2023-02-06T19:30:19.185Z,101677.48
2023-02-06T19:32:48.222Z,101680.30
2023-02-06T19:35:16.907Z,101679.58
2023-02-06T19:37:43.907Z,101683.33
2023-02-06T19:40:11.338Z,101683.77
2023-02-06T19:42:39.098Z,101685.70
2023-02-06T19:45:06.537Z,101686.02
2023-02-06T19:47:34.524Z,101689.34
2023-02-06T19:50:01.671Z,101688.08
2023-02-06T19:52:28.925Z,101689.25
2023-02-06T19:54:56.076Z,101693.79
2023-02-06T19:57:22.790Z,101687.45
2023-02-06T19:59:49.603Z,101687.45
2023-02-06T20:02:16.292Z,101687.91
2023-02-06T20:14:29.028Z,101685.80
2023-02-06T20:16:55.937Z,101678.88
2023-02-06T20:19:24.321Z,101679.57
2023-02-06T20:21:53.706Z,101678.42
2023-02-06T20:24:22.698Z,101680.44
2023-02-06T20:26:52.247Z,101677.50
2023-02-06T20:29:22.019Z,101677.83
2023-02-06T20:31:49.608Z,101683.25
2023-02-06T20:34:16.563Z,101688.41
2023-02-06T20:36:43.881Z,101680.62
2023-02-06T20:39:11.766Z,101685.87
2023-02-06T20:41:38.921Z,101685.96
2023-02-06T20:44:05.945Z,101685.04
2023-02-06T20:46:34.355Z,101692.40
2023-02-06T20:49:08.692Z,101693.35
2023-02-06T20:51:35.437Z,101691.73
2023-02-06T20:54:02.947Z,101693.34
2023-02-06T20:56:30.647Z,101694.01
2023-02-06T20:59:00.366Z,101695.62
2023-02-06T21:01:28.258Z,101693.55
2023-02-06T21:03:57.771Z,101699.20
2023-02-06T21:06:24.819Z,101697.88
2023-02-06T21:08:56.788Z,101698.69
2023-02-06T21:11:23.828Z,101692.47
2023-02-06T21:18:42.620Z,101697.39
2023-02-06T21:25:16.328Z,101702.33
2023-02-06T21:27:43.602Z,101706.52
2023-02-06T21:30:11.580Z,101709.83
2023-02-06T21:32:39.720Z,101707.40
2023-02-06T21:35:08.328Z,101713.63
2023-02-06T21:37:35.008Z,101708.76
2023-02-06T21:40:04.103Z,101712.87
2023-02-06T21:42:30.933Z,101707.33
2023-02-06T21:44:58.464Z,101707.41
2023-02-06T21:47:25.450Z,101707.10
2023-02-06T21:49:52.146Z,101708.14
2023-02-06T21:52:19.163Z,101708.90
2023-02-06T21:54:47.978Z,101706.66
2023-02-06T21:57:15.201Z,101705.80
2023-02-06T21:59:42.333Z,101706.61
2023-02-06T22:02:10.598Z,101703.83
2023-02-06T22:04:38.011Z,101706.80
2023-02-06T22:07:04.832Z,101706.34
2023-02-06T22:09:31.445Z,101705.19
2023-02-06T22:11:58.277Z,101703.72
2023-02-06T22:14:25.546Z,101707.21
2023-02-06T22:16:53.252Z,101700.45
2023-02-06T22:19:19.964Z,101700.90
2023-02-06T22:21:48.113Z,101702.30
2023-02-06T22:29:06.537Z,101704.86
2023-02-06T22:31:33.510Z,101706.30
2023-02-06T22:34:00.486Z,101702.35
2023-02-06T22:36:29.201Z,101698.14
2023-02-06T22:38:58.874Z,101701.50
2023-02-06T22:41:25.804Z,101699.98
2023-02-06T22:43:52.374Z,101697.16
2023-02-06T22:46:40.894Z,101692.27
2023-02-06T22:49:08.754Z,101693.42
2023-02-06T22:51:36.414Z,101693.48
2023-02-06T22:54:03.677Z,101700.83
2023-02-06T22:56:34.248Z,101698.26
2023-02-06T22:59:20.447Z,101697.56
2023-02-06T23:01:58.118Z,101704.52
2023-02-06T23:04:29.218Z,101702.18
2023-02-06T23:06:56.966Z,101700.41
2023-02-06T23:09:28.905Z,101702.98
2023-02-06T23:11:57.734Z,101706.20
2023-02-06T23:14:24.664Z,101706.39
2023-02-06T23:16:52.023Z,101702.42
2023-02-06T23:19:19.057Z,101702.63
2023-02-06T23:21:47.208Z,101704.54
2023-02-06T23:24:14.627Z,101707.95
2023-02-06T23:26:42.771Z,101708.53
2023-02-06T23:29:09.684Z,101705.07
2023-02-06T23:32:01.614Z,101705.14
2023-02-06T23:34:29.426Z,101710.58
2023-02-06T23:36:57.280Z,101709.00
2023-02-06T23:39:24.092Z,101707.92
2023-02-06T23:41:51.930Z,101711.11
2023-02-06T23:44:18.934Z,101708.02
2023-02-06T23:46:47.302Z,101707.60
2023-02-06T23:49:14.761Z,101709.11
2023-02-06T23:51:41.581Z,101708.50
2023-02-06T23:54:08.583Z,101709.13
2023-02-06T23:56:35.913Z,101707.87
2023-02-06T23:59:04.087Z,101703.91
